Time;durP1;ratioP1;P1;durP2;ratioP2;P2;SDS_P1;SDS_P2;PMS_P1;PMS_P2;Temp;Humidity;BMP_temperature;BMP_pressure;BME280_temperature;BME280_humidity;BME280_pressure;Samples;Min_cycle;Max_cycle;Signal;HPM_P1;HPM_P2
2021/12/08 00:01:58;;;;;;;15.30;7.45;;;;;;;;;;5036072;28;20039;-73
2021/12/08 00:04:24;;;;;;;17.08;6.97;;;;;;;;;;5036307;28;20029;-74
2021/12/08 00:06:50;;;;;;;12.30;6.68;;;;;;;;;;5035775;28;20124;-74
2021/12/08 00:09:27;;;;;;;13.45;6.35;;;;;;;;;;5036070;28;20056;-72
2021/12/08 00:14:37;;;;;;;12.18;5.15;;;;;;;;;;5035839;28;20119;-70
2021/12/08 00:17:03;;;;;;;9.48;4.00;;;;;;;;;;5035636;28;20037;-71
2021/12/08 00:19:29;;;;;;;10.13;3.95;;;;;;;;;;5036031;28;20037;-71
2021/12/08 00:21:55;;;;;;;6.90;2.97;;;;;;;;;;5035783;28;20033;-71
2021/12/08 00:24:20;;;;;;;7.25;3.10;;;;;;;;;;5035903;28;20068;-72
2021/12/08 00:26:46;;;;;;;5.95;2.92;;;;;;;;;;5035654;28;20048;-71
2021/12/08 00:29:12;;;;;;;6.93;3.10;;;;;;;;;;5035826;28;20025;-72
2021/12/08 00:31:38;;;;;;;8.55;3.45;;;;;;;;;;5030782;28;20029;-70
2021/12/08 00:34:03;;;;;;;8.45;3.65;;;;;;;;;;5034836;28;20033;-72
2021/12/08 00:36:31;;;;;;;12.13;4.65;;;;;;;;;;5035342;28;20064;-74
2021/12/08 00:38:56;;;;;;;15.27;7.88;;;;;;;;;;5035339;28;20037;-72
2021/12/08 00:41:22;;;;;;;15.65;8.63;;;;;;;;;;5035659;28;20044;-73
2021/12/08 00:43:48;;;;;;;13.50;7.40;;;;;;;;;;5035514;28;20036;-70
2021/12/08 00:46:14;;;;;;;15.95;7.60;;;;;;;;;;5035171;28;20036;-75
2021/12/08 00:48:47;;;;;;;14.68;6.30;;;;;;;;;;5035533;28;20040;-73
2021/12/08 00:51:13;;;;;;;13.57;6.25;;;;;;;;;;5035112;28;20045;-74
2021/12/08 00:53:39;;;;;;;13.45;6.00;;;;;;;;;;5035330;28;20036;-72
2021/12/08 00:56:04;;;;;;;11.20;4.97;;;;;;;;;;5034797;28;20033;-72
2021/12/08 00:58:30;;;;;;;10.40;4.30;;;;;;;;;;5035455;28;20029;-73
2021/12/08 01:00:56;;;;;;;7.35;3.75;;;;;;;;;;5034086;28;20061;-72
2021/12/08 01:03:21;;;;;;;9.07;4.05;;;;;;;;;;5035193;28;20036;-70
2021/12/08 01:05:54;;;;;;;8.32;3.92;;;;;;;;;;5034886;28;20036;-71
2021/12/08 01:08:22;;;;;;;12.00;3.92;;;;;;;;;;5035091;28;20033;-72
2021/12/08 01:10:50;;;;;;;10.13;4.20;;;;;;;;;;5034957;28;20029;-72
2021/12/08 01:13:17;;;;;;;12.38;3.72;;;;;;;;;;5034688;28;20044;-74
2021/12/08 01:15:48;;;;;;;8.65;2.90;;;;;;;;;;5034557;28;20033;-71
2021/12/08 01:18:15;;;;;;;7.53;2.80;;;;;;;;;;5034721;28;20041;-73
2021/12/08 01:20:42;;;;;;;6.85;2.78;;;;;;;;;;5034698;28;20044;-72
2021/12/08 01:23:07;;;;;;;6.20;2.70;;;;;;;;;;5034719;28;20474;-74
2021/12/08 01:25:33;;;;;;;6.53;2.80;;;;;;;;;;5034712;28;20079;-71
2021/12/08 01:27:59;;;;;;;6.72;2.83;;;;;;;;;;5034353;28;20053;-70
2021/12/08 01:30:25;;;;;;;7.78;2.58;;;;;;;;;;5030730;28;20029;-70
2021/12/08 01:32:52;;;;;;;6.25;2.92;;;;;;;;;;5034528;28;20033;-74
2021/12/08 01:35:19;;;;;;;6.20;3.10;;;;;;;;;;5034858;28;20033;-72
2021/12/08 01:37:45;;;;;;;6.00;2.92;;;;;;;;;;5034304;28;20040;-72
2021/12/08 01:40:13;;;;;;;9.75;3.10;;;;;;;;;;5034341;28;20044;-74
2021/12/08 01:42:46;;;;;;;4.93;2.65;;;;;;;;;;5033467;28;20382;-71
2021/12/08 01:48:05;;;;;;;4.43;2.47;;;;;;;;;;5034256;28;20493;-73
2021/12/08 01:50:32;;;;;;;5.80;2.75;;;;;;;;;;5034274;28;20528;-72
2021/12/08 01:52:58;;;;;;;5.30;2.83;;;;;;;;;;5034194;28;20402;-73
2021/12/08 01:55:24;;;;;;;5.00;2.70;;;;;;;;;;5034174;28;20450;-73
2021/12/08 01:57:49;;;;;;;6.93;2.85;;;;;;;;;;5033899;28;20044;-71
2021/12/08 02:00:24;;;;;;;6.47;2.78;;;;;;;;;;5034031;28;20470;-73
2021/12/08 02:02:49;;;;;;;6.63;2.88;;;;;;;;;;5034044;28;20056;-71
2021/12/08 02:05:17;;;;;;;6.00;2.63;;;;;;;;;;5033959;28;20037;-73
2021/12/08 02:07:43;;;;;;;5.32;2.47;;;;;;;;;;5033652;28;20030;-71
2021/12/08 02:10:10;;;;;;;6.97;2.70;;;;;;;;;;5033764;28;20025;-70
2021/12/08 02:12:39;;;;;;;3.65;2.20;;;;;;;;;;5034017;28;20033;-72
2021/12/08 02:15:08;;;;;;;4.97;2.55;;;;;;;;;;5032620;28;20068;-75
2021/12/08 02:17:34;;;;;;;5.28;2.40;;;;;;;;;;5033537;28;20064;-74
2021/12/08 02:20:03;;;;;;;6.25;2.20;;;;;;;;;;5033693;28;20056;-74
2021/12/08 02:22:28;;;;;;;6.60;2.42;;;;;;;;;;5033751;28;20037;-72
2021/12/08 02:24:54;;;;;;;4.97;2.30;;;;;;;;;;5033703;28;20048;-71
2021/12/08 02:27:20;;;;;;;7.30;2.50;;;;;;;;;;5033456;28;20033;-73
2021/12/08 02:29:53;;;;;;;8.27;2.58;;;;;;;;;;5030565;28;20037;-70
2021/12/08 02:48:29;;;;;;;8.32;2.00;;;;;;;;;;5033124;28;20040;-72
2021/12/08 02:50:56;;;;;;;5.65;1.98;;;;;;;;;;5033396;28;20033;-70
2021/12/08 02:53:22;;;;;;;3.95;2.00;;;;;;;;;;5033323;28;20401;-70
2021/12/08 02:55:48;;;;;;;3.13;1.70;;;;;;;;;;5034066;28;20029;-71
2021/12/08 02:58:15;;;;;;;3.45;1.80;;;;;;;;;;5037170;28;20067;-74
2021/12/08 03:00:48;;;;;;;6.13;1.70;;;;;;;;;;5037468;28;20095;-71
2021/12/08 03:03:14;;;;;;;6.78;1.95;;;;;;;;;;5037213;28;20041;-74
2021/12/08 03:05:39;;;;;;;5.70;1.60;;;;;;;;;;5037362;28;20060;-73
2021/12/08 03:08:07;;;;;;;3.00;1.52;;;;;;;;;;5035934;28;20478;-71
2021/12/08 03:10:37;;;;;;;3.83;1.60;;;;;;;;;;5037384;28;20112;-73
2021/12/08 03:13:03;;;;;;;5.82;1.65;;;;;;;;;;5037008;28;20059;-74
2021/12/08 03:15:29;;;;;;;2.95;1.50;;;;;;;;;;5037109;28;20405;-71
2021/12/08 03:17:54;;;;;;;4.55;1.50;;;;;;;;;;5036652;28;20542;-70
2021/12/08 03:20:28;;;;;;;2.55;1.35;;;;;;;;;;5037009;28;20095;-72
2021/12/08 03:23:00;;;;;;;3.70;1.77;;;;;;;;;;5037238;28;20033;-73
2021/12/08 03:25:28;;;;;;;5.40;1.42;;;;;;;;;;5037009;28;20055;-72
2021/12/08 03:28:06;;;;;;;3.55;1.63;;;;;;;;;;5036753;28;20080;-71
2021/12/08 03:30:40;;;;;;;4.88;1.50;;;;;;;;;;5032091;28;20102;-74
2021/12/08 03:33:08;;;;;;;6.15;1.70;;;;;;;;;;5036557;28;20048;-70
2021/12/08 03:35:34;;;;;;;3.40;1.48;;;;;;;;;;5035873;28;20041;-72
2021/12/08 03:37:59;;;;;;;2.78;1.50;;;;;;;;;;5036552;28;20095;-72
2021/12/08 03:40:27;;;;;;;4.28;1.42;;;;;;;;;;5036660;28;20029;-73
2021/12/08 03:42:56;;;;;;;2.85;1.25;;;;;;;;;;5035683;28;20079;-74
2021/12/08 03:45:26;;;;;;;2.85;1.30;;;;;;;;;;5035551;28;20144;-70
2021/12/08 03:48:01;;;;;;;2.88;1.20;;;;;;;;;;5036503;28;20036;-73
2021/12/08 03:50:30;;;;;;;2.45;1.35;;;;;;;;;;5036474;28;20474;-73
2021/12/08 03:52:56;;;;;;;2.88;1.20;;;;;;;;;;5036492;28;20052;-73
2021/12/08 03:55:22;;;;;;;4.93;1.27;;;;;;;;;;5036177;28;20482;-73
2021/12/08 03:57:48;;;;;;;2.28;1.20;;;;;;;;;;5036099;28;20044;-73
2021/12/08 04:00:17;;;;;;;3.63;1.35;;;;;;;;;;5036130;28;20064;-72
2021/12/08 04:02:44;;;;;;;3.50;1.20;;;;;;;;;;5036410;28;20401;-70
2021/12/08 04:05:10;;;;;;;3.15;1.08;;;;;;;;;;5036104;28;20033;-73
2021/12/08 04:07:43;;;;;;;3.58;1.10;;;;;;;;;;5035922;28;20091;-73
2021/12/08 04:10:18;;;;;;;3.00;1.15;;;;;;;;;;5036094;28;20040;-71
2021/12/08 04:12:46;;;;;;;3.85;1.30;;;;;;;;;;5035997;28;20079;-74
2021/12/08 04:15:12;;;;;;;2.35;1.10;;;;;;;;;;5035890;28;20063;-71
2021/12/08 04:17:42;;;;;;;2.63;1.10;;;;;;;;;;5035761;28;20025;-72
2021/12/08 04:20:14;;;;;;;2.20;1.27;;;;;;;;;;5035849;28;20033;-72
2021/12/08 04:22:44;;;;;;;2.47;1.27;;;;;;;;;;5036108;28;20038;-73
2021/12/08 04:25:16;;;;;;;3.13;1.25;;;;;;;;;;5036216;28;20039;-71
2021/12/08 04:27:43;;;;;;;4.07;1.40;;;;;;;;;;5035791;28;20045;-73
2021/12/08 04:30:14;;;;;;;3.00;1.23;;;;;;;;;;5030166;28;20048;-72
2021/12/08 04:32:40;;;;;;;2.88;1.10;;;;;;;;;;5035955;28;20036;-71
2021/12/08 04:35:09;;;;;;;3.30;1.10;;;;;;;;;;5035496;28;20029;-73
2021/12/08 04:37:39;;;;;;;4.70;1.20;;;;;;;;;;5034454;28;20371;-72
2021/12/08 04:40:39;;;;;;;2.65;1.27;;;;;;;;;;5035442;28;20033;-71
2021/12/08 04:43:21;;;;;;;2.47;1.20;;;;;;;;;;5029678;28;20069;-73
2021/12/08 04:46:15;;;;;;;2.83;1.08;;;;;;;;;;5035602;28;20041;-70
2021/12/08 05:07:57;;;;;;;2.17;1.13;;;;;;;;;;5034788;28;20034;-71
2021/12/08 05:10:34;;;;;;;2.72;1.10;;;;;;;;;;5035057;28;20036;-73
2021/12/08 05:13:02;;;;;;;3.63;1.00;;;;;;;;;;5035024;28;20356;-71
2021/12/08 05:15:45;;;;;;;3.40;0.98;;;;;;;;;;5034797;28;20041;-73
2021/12/08 05:18:21;;;;;;;2.53;1.05;;;;;;;;;;5034268;28;20025;-72
2021/12/08 05:21:03;;;;;;;4.63;0.80;;;;;;;;;;5034867;28;20025;-72
2021/12/08 05:23:59;;;;;;;1.90;0.90;;;;;;;;;;5034796;28;20409;-71
2021/12/08 05:26:33;;;;;;;1.85;0.90;;;;;;;;;;5031662;28;20112;-73
2021/12/08 05:29:05;;;;;;;1.65;0.90;;;;;;;;;;5034553;28;20464;-72
2021/12/08 05:31:32;;;;;;;1.65;1.00;;;;;;;;;;5028593;28;20029;-70
2021/12/08 05:33:59;;;;;;;3.58;1.00;;;;;;;;;;5034599;28;20057;-71
2021/12/08 05:36:25;;;;;;;1.25;0.80;;;;;;;;;;5034323;28;20030;-74
2021/12/08 05:38:51;;;;;;;2.58;0.93;;;;;;;;;;5034280;28;20477;-72
2021/12/08 05:41:22;;;;;;;3.15;1.08;;;;;;;;;;5034410;28;20030;-73
2021/12/08 05:43:49;;;;;;;6.25;2.88;;;;;;;;;;5049938;28;20040;-71
2021/12/08 05:46:18;;;;;;;1.83;1.00;;;;;;;;;;5034262;28;20520;-70
2021/12/08 05:48:49;;;;;;;2.92;0.98;;;;;;;;;;5034073;28;20081;-70
2021/12/08 05:51:21;;;;;;;1.50;0.98;;;;;;;;;;5033252;28;20033;-72
2021/12/08 05:53:50;;;;;;;1.90;1.00;;;;;;;;;;5034198;28;20033;-71
2021/12/08 05:56:17;;;;;;;1.38;0.90;;;;;;;;;;5032979;28;20041;-72
2021/12/08 05:58:45;;;;;;;3.53;1.13;;;;;;;;;;5034072;28;20532;-73
2021/12/08 06:01:22;;;;;;;5.88;1.17;;;;;;;;;;5034027;28;20028;-71
2021/12/08 06:03:50;;;;;;;3.65;1.20;;;;;;;;;;5032894;28;20095;-73
2021/12/08 06:06:21;;;;;;;5.15;1.00;;;;;;;;;;5033847;28;20021;-71
2021/12/08 06:08:47;;;;;;;1.77;1.00;;;;;;;;;;5033464;28;20368;-73
2021/12/08 06:11:14;;;;;;;3.55;1.00;;;;;;;;;;5033941;28;20090;-73
2021/12/08 06:13:42;;;;;;;1.90;0.93;;;;;;;;;;5033706;28;20061;-73
2021/12/08 06:16:10;;;;;;;2.28;0.90;;;;;;;;;;5033865;28;20044;-70
2021/12/08 06:18:39;;;;;;;3.00;0.80;;;;;;;;;;5033647;28;20064;-71
2021/12/08 06:21:14;;;;;;;3.58;1.08;;;;;;;;;;5032563;28;20355;-71
2021/12/08 06:23:41;;;;;;;1.75;0.95;;;;;;;;;;5033794;28;20061;-71
2021/12/08 06:26:08;;;;;;;2.03;0.90;;;;;;;;;;5033786;28;20029;-73
2021/12/08 06:28:34;;;;;;;3.63;1.00;;;;;;;;;;5033445;28;20045;-71
2021/12/08 06:31:00;;;;;;;15.43;7.40;;;;;;;;;;5026368;28;20036;-74
2021/12/08 06:33:26;;;;;;;2.83;0.98;;;;;;;;;;5033390;28;20419;-74
2021/12/08 06:35:56;;;;;;;1.80;0.95;;;;;;;;;;5033527;28;20104;-73
2021/12/08 06:38:23;;;;;;;3.53;0.90;;;;;;;;;;5033639;28;20025;-73
2021/12/08 06:40:55;;;;;;;1.75;0.75;;;;;;;;;;5032446;28;20033;-72
2021/12/08 06:43:26;;;;;;;1.50;0.73;;;;;;;;;;5033520;28;20021;-71
2021/12/08 06:45:55;;;;;;;3.35;0.80;;;;;;;;;;5033569;28;20057;-70
2021/12/08 06:48:27;;;;;;;1.98;0.90;;;;;;;;;;5033169;28;20040;-72
2021/12/08 06:50:59;;;;;;;1.52;1.00;;;;;;;;;;5033483;28;20021;-72
2021/12/08 06:53:28;;;;;;;1.73;1.17;;;;;;;;;;5033225;28;20029;-70
2021/12/08 06:55:59;;;;;;;2.10;0.90;;;;;;;;;;5033539;28;20033;-71
2021/12/08 06:58:27;;;;;;;3.15;1.40;;;;;;;;;;5033206;28;20041;-73
2021/12/08 07:01:18;;;;;;;3.10;1.65;;;;;;;;;;5033317;28;20029;-72
2021/12/08 07:04:11;;;;;;;4.18;2.25;;;;;;;;;;5033154;28;20037;-73
2021/12/08 07:06:47;;;;;;;3.38;2.00;;;;;;;;;;5033205;28;20111;-71
2021/12/08 07:09:21;;;;;;;4.38;3.22;;;;;;;;;;5033021;28;20352;-72
2021/12/08 07:11:50;;;;;;;4.22;1.02;;;;;;;;;;5032416;28;20526;-71
2021/12/08 07:14:16;;;;;;;4.88;1.20;;;;;;;;;;5032970;28;20392;-73
2021/12/08 07:16:45;;;;;;;3.38;1.00;;;;;;;;;;5033092;28;20043;-72
2021/12/08 07:19:23;;;;;;;6.40;1.48;;;;;;;;;;5033075;28;20083;-72
2021/12/08 07:21:51;;;;;;;6.20;1.48;;;;;;;;;;5033199;28;20033;-71
2021/12/08 07:24:21;;;;;;;5.25;1.50;;;;;;;;;;5032953;28;20382;-71
2021/12/08 07:26:49;;;;;;;4.65;1.90;;;;;;;;;;5033248;28;20108;-74
2021/12/08 07:29:19;;;;;;;10.23;2.08;;;;;;;;;;5032689;28;20033;-70
2021/12/08 07:31:51;;;;;;;5.85;1.63;;;;;;;;;;5025972;28;20029;-74
2021/12/08 07:34:19;;;;;;;4.97;1.42;;;;;;;;;;5032878;28;20474;-72
2021/12/08 07:36:54;;;;;;;2.53;1.10;;;;;;;;;;5032835;28;20029;-70
2021/12/08 07:39:27;;;;;;;5.95;2.30;;;;;;;;;;5032685;28;20443;-72
2021/12/08 07:42:07;;;;;;;7.40;1.65;;;;;;;;;;5033918;28;20079;-74
2021/12/08 07:44:33;;;;;;;5.47;2.30;;;;;;;;;;5036483;28;20032;-71
2021/12/08 07:47:05;;;;;;;3.13;1.20;;;;;;;;;;5036669;28;20018;-72
2021/12/08 07:49:40;;;;;;;7.05;2.92;;;;;;;;;;5036254;28;20382;-70
2021/12/08 07:52:10;;;;;;;3.95;1.40;;;;;;;;;;5036402;28;20528;-73
2021/12/08 07:54:37;;;;;;;4.38;1.85;;;;;;;;;;5036422;28;20542;-72
2021/12/08 07:57:10;;;;;;;9.15;3.05;;;;;;;;;;5036300;28;20036;-72
2021/12/08 07:59:41;;;;;;;4.22;1.25;;;;;;;;;;5036041;28;20159;-71
2021/12/08 08:02:07;;;;;;;4.35;1.85;;;;;;;;;;5036166;28;20056;-72
2021/12/08 08:04:40;;;;;;;5.88;1.60;;;;;;;;;;5036121;28;20037;-72
2021/12/08 08:07:08;;;;;;;3.65;1.33;;;;;;;;;;5036288;28;20025;-74
2021/12/08 08:09:40;;;;;;;3.03;1.33;;;;;;;;;;5035830;28;20474;-72
2021/12/08 08:12:15;;;;;;;2.70;1.08;;;;;;;;;;5036322;28;20466;-69
2021/12/08 08:14:49;;;;;;;6.70;1.30;;;;;;;;;;5035666;28;20132;-74
2021/12/08 08:17:18;;;;;;;3.45;2.13;;;;;;;;;;5035914;28;20033;-71
2021/12/08 08:19:46;;;;;;;4.80;1.40;;;;;;;;;;5035664;28;20035;-71
2021/12/08 08:22:19;;;;;;;5.35;1.35;;;;;;;;;;5035992;28;20439;-72
2021/12/08 08:24:45;;;;;;;4.35;1.55;;;;;;;;;;5035861;28;20124;-72
2021/12/08 08:27:12;;;;;;;7.53;2.05;;;;;;;;;;5035933;28;20035;-70
2021/12/08 08:29:38;;;;;;;4.72;1.88;;;;;;;;;;5033547;28;20067;-73
2021/12/08 08:32:24;;;;;;;5.85;1.52;;;;;;;;;;5030524;28;20279;-74
2021/12/08 08:34:55;;;;;;;5.57;1.40;;;;;;;;;;5035707;28;20029;-73
2021/12/08 08:37:21;;;;;;;4.03;1.20;;;;;;;;;;5035536;28;20036;-73
2021/12/08 08:39:56;;;;;;;5.22;1.38;;;;;;;;;;5035337;28;20033;-72
2021/12/08 08:42:27;;;;;;;6.20;1.45;;;;;;;;;;5035518;28;20029;-72
2021/12/08 08:44:58;;;;;;;;;;;;;;;;;;5036022;28;20033;-73
2021/12/08 08:47:37;;;;;;;2.70;1.05;;;;;;;;;;5035293;28;19966;-71
2021/12/08 08:50:06;;;;;;;3.55;1.48;;;;;;;;;;5035415;28;20035;-71
2021/12/08 08:52:41;;;;;;;6.90;1.25;;;;;;;;;;5034291;28;20115;-73
2021/12/08 08:55:14;;;;;;;4.15;1.20;;;;;;;;;;5034681;28;20053;-73
2021/12/08 08:57:41;;;;;;;7.00;2.25;;;;;;;;;;5035235;28;20037;-70
2021/12/08 09:00:34;;;;;;;4.38;1.30;;;;;;;;;;5035143;28;20034;-71
2021/12/08 09:03:07;;;;;;;4.50;1.48;;;;;;;;;;5035454;28;20025;-71
2021/12/08 09:05:51;;;;;;;5.15;1.10;;;;;;;;;;5035169;28;20087;-73
2021/12/08 09:08:17;;;;;;;4.18;1.40;;;;;;;;;;5035327;28;20036;-73
2021/12/08 09:10:48;;;;;;;4.18;2.05;;;;;;;;;;5034536;28;20061;-71
2021/12/08 09:13:23;;;;;;;2.72;1.20;;;;;;;;;;5034966;28;20525;-69
2021/12/08 09:15:54;;;;;;;3.67;1.17;;;;;;;;;;5035012;28;20052;-73
2021/12/08 09:18:37;;;;;;;5.82;1.77;;;;;;;;;;5035060;28;20043;-72
2021/12/08 09:21:18;;;;;;;8.32;4.05;;;;;;;;;;5034538;28;20033;-73
2021/12/08 09:23:57;;;;;;;6.03;2.28;;;;;;;;;;5033662;28;20047;-72
2021/12/08 09:26:26;;;;;;;20.40;10.57;;;;;;;;;;5034526;28;20041;-71
2021/12/08 09:28:57;;;;;;;7.57;3.00;;;;;;;;;;5034529;28;20037;-72
2021/12/08 09:31:33;;;;;;;4.40;2.25;;;;;;;;;;5026558;28;20543;-71
2021/12/08 09:34:26;;;;;;;5.85;2.10;;;;;;;;;;5034702;28;20037;-73
2021/12/08 09:37:07;;;;;;;10.43;5.00;;;;;;;;;;5034208;28;20125;-72
2021/12/08 09:39:40;;;;;;;9.23;4.65;;;;;;;;;;5034228;28;20040;-71
2021/12/08 09:42:09;;;;;;;3.72;1.95;;;;;;;;;;5034347;28;20026;-72
2021/12/08 09:44:40;;;;;;;8.13;3.33;;;;;;;;;;5034326;28;20047;-71
2021/12/08 09:47:06;;;;;;;5.97;2.38;;;;;;;;;;5034394;28;20036;-73
2021/12/08 09:49:34;;;;;;;4.47;2.00;;;;;;;;;;5033840;28;20033;-70
2021/12/08 09:52:01;;;;;;;4.30;2.30;;;;;;;;;;5034258;28;20476;-72
2021/12/08 09:54:26;;;;;;;7.05;3.42;;;;;;;;;;5033156;28;20061;-70
2021/12/08 09:56:53;;;;;;;6.90;3.20;;;;;;;;;;5034239;28;20474;-73
2021/12/08 09:59:21;;;;;;;4.05;2.00;;;;;;;;;;5033818;28;20041;-71
2021/12/08 10:01:48;;;;;;;5.20;2.20;;;;;;;;;;5034134;28;20378;-70
2021/12/08 10:04:15;;;;;;;4.28;2.20;;;;;;;;;;5034266;28;20112;-70
2021/12/08 10:06:48;;;;;;;7.38;2.30;;;;;;;;;;5033930;28;20033;-69
2021/12/08 10:09:15;;;;;;;4.97;2.53;;;;;;;;;;5034076;28;20135;-73
2021/12/08 10:11:41;;;;;;;7.18;2.72;;;;;;;;;;5033878;28;20045;-71
2021/12/08 10:14:07;;;;;;;7.38;3.33;;;;;;;;;;5033737;28;20049;-71
2021/12/08 10:16:33;;;;;;;6.00;2.75;;;;;;;;;;5033716;28;20078;-72
2021/12/08 10:19:00;;;;;;;7.45;2.80;;;;;;;;;;5033905;28;20044;-72
2021/12/08 10:21:40;;;;;;;3.88;1.80;;;;;;;;;;5032228;28;20074;-73
2021/12/08 10:24:29;;;;;;;4.20;2.05;;;;;;;;;;5033657;28;20052;-74
2021/12/08 10:27:07;;;;;;;5.57;2.13;;;;;;;;;;5033860;28;20034;-74
2021/12/08 10:29:34;;;;;;;5.43;3.13;;;;;;;;;;5033319;28;20124;-72
2021/12/08 10:32:01;;;;;;;6.68;3.60;;;;;;;;;;5033677;28;20029;-71
2021/12/08 10:34:42;;;;;;;8.93;3.70;;;;;;;;;;5033346;28;20061;-72
2021/12/08 10:37:18;;;;;;;8.10;4.82;;;;;;;;;;5033446;28;20044;-70
2021/12/08 10:39:52;;;;;;;7.38;3.53;;;;;;;;;;5033230;28;20034;-70
2021/12/08 10:42:33;;;;;;;8.45;3.22;;;;;;;;;;5033544;28;20037;-73
2021/12/08 10:45:12;;;;;;;4.88;3.13;;;;;;;;;;5033580;28;20037;-70
2021/12/08 10:48:02;;;;;;;4.70;2.88;;;;;;;;;;5033280;28;20030;-70
2021/12/08 10:56:44;;;;;;;6.80;3.35;;;;;;;;;;5033115;28;20052;-71
2021/12/08 10:59:42;;;;;;;4.30;2.63;;;;;;;;;;5033533;28;20029;-73
2021/12/08 11:02:44;;;;;;;5.75;2.70;;;;;;;;;;5011888;28;20042;-72
2021/12/08 11:05:28;;;;;;;7.15;2.35;;;;;;;;;;5012515;28;20080;-71
2021/12/08 11:07:59;;;;;;;4.40;2.25;;;;;;;;;;5033157;28;20036;-70
2021/12/08 11:10:56;;;;;;;4.93;1.50;;;;;;;;;;5032905;28;20037;-74
2021/12/08 11:13:30;;;;;;;3.25;1.90;;;;;;;;;;5032958;28;20053;-71
2021/12/08 11:16:05;;;;;;;4.75;2.03;;;;;;;;;;5033161;28;20385;-74
2021/12/08 11:18:39;;;;;;;4.18;2.03;;;;;;;;;;5036765;28;20488;-72
2021/12/08 11:21:37;;;;;;;3.70;2.55;;;;;;;;;;5036750;28;20033;-70
2021/12/08 11:24:11;;;;;;;5.32;2.30;;;;;;;;;;5026699;28;20045;-73
2021/12/08 11:26:47;;;;;;;5.95;2.60;;;;;;;;;;5036903;28;20041;-70
2021/12/08 11:29:23;;;;;;;3.33;2.00;;;;;;;;;;5036822;28;20029;-74
2021/12/08 11:32:06;;;;;;;3.53;2.20;;;;;;;;;;5034862;28;20032;-72
2021/12/08 11:34:41;;;;;;;4.55;2.17;;;;;;;;;;5036818;28;20087;-72
2021/12/08 11:37:17;;;;;;;3.78;2.22;;;;;;;;;;5036681;28;20038;-71
2021/12/08 11:39:55;;;;;;;3.92;2.10;;;;;;;;;;5036354;28;20038;-71
2021/12/08 11:42:29;;;;;;;6.70;2.90;;;;;;;;;;5036860;28;20033;-70
2021/12/08 11:44:58;;;;;;;5.22;2.17;;;;;;;;;;5036601;28;20116;-72
2021/12/08 11:47:32;;;;;;;4.90;2.05;;;;;;;;;;5036568;28;20061;-74
2021/12/08 11:50:08;;;;;;;3.22;1.98;;;;;;;;;;5036641;28;20037;-71
2021/12/08 11:52:34;;;;;;;4.22;2.13;;;;;;;;;;5036474;28;20064;-74
2021/12/08 11:55:06;;;;;;;4.40;1.90;;;;;;;;;;5036452;28;20053;-73
2021/12/08 11:57:45;;;;;;;2.92;1.50;;;;;;;;;;5036169;28;20033;-74
2021/12/08 12:00:15;;;;;;;3.78;1.80;;;;;;;;;;5036436;28;20111;-73
2021/12/08 12:02:56;;;;;;;3.42;1.40;;;;;;;;;;5036640;28;20036;-73
2021/12/08 12:05:36;;;;;;;2.42;1.30;;;;;;;;;;5036278;28;20044;-71
2021/12/08 12:08:04;;;;;;;3.13;1.52;;;;;;;;;;5036259;28;20056;-72
2021/12/08 12:10:33;;;;;;;3.05;1.58;;;;;;;;;;5034985;28;20072;-73
2021/12/08 12:13:00;;;;;;;3.22;1.70;;;;;;;;;;5036292;28;20025;-71
2021/12/08 12:15:26;;;;;;;3.55;1.70;;;;;;;;;;5035940;28;20049;-72
2021/12/08 12:17:52;;;;;;;2.80;1.38;;;;;;;;;;5035895;28;20099;-72
2021/12/08 12:20:23;;;;;;;2.78;1.42;;;;;;;;;;5035816;28;20515;-73
2021/12/08 12:22:54;;;;;;;;;;;;;;;;;;5036346;28;20033;-72
2021/12/08 12:25:22;;;;;;;2.97;1.40;;;;;;;;;;5035972;28;20052;-73
2021/12/08 12:27:57;;;;;;;3.13;1.38;;;;;;;;;;5035200;28;20041;-73
2021/12/08 12:30:51;;;;;;;3.00;1.40;;;;;;;;;;5033925;28;20056;-73
2021/12/08 12:33:19;;;;;;;2.83;1.20;;;;;;;;;;5035768;28;20370;-74
2021/12/08 12:35:53;;;;;;;3.92;1.27;;;;;;;;;;5035854;28;20040;-71
2021/12/08 12:38:33;;;;;;;2.00;1.20;;;;;;;;;;5035666;28;20044;-71
2021/12/08 12:40:59;;;;;;;3.17;1.37;;;;;;;;;;5035390;28;20072;-73
2021/12/08 12:43:32;;;;;;;3.17;1.20;;;;;;;;;;5035690;28;20068;-74
2021/12/08 12:46:07;;;;;;;2.53;1.00;;;;;;;;;;5035571;28;20055;-74
2021/12/08 12:48:36;;;;;;;2.85;1.00;;;;;;;;;;5035557;28;20048;-72
2021/12/08 12:51:07;;;;;;;1.42;0.85;;;;;;;;;;5035225;28;20037;-75
2021/12/08 12:53:45;;;;;;;1.33;0.88;;;;;;;;;;5035349;28;20029;-73
2021/12/08 12:56:15;;;;;;;1.80;0.70;;;;;;;;;;5034105;28;20099;-73
2021/12/08 12:58:52;;;;;;;2.08;0.50;;;;;;;;;;5035077;28;20452;-71
2021/12/08 13:01:27;;;;;;;1.90;0.63;;;;;;;;;;5035002;28;20037;-73
2021/12/08 13:04:05;;;;;;;2.92;0.40;;;;;;;;;;5035096;28;20029;-72
2021/12/08 13:06:47;;;;;;;0.70;0.30;;;;;;;;;;5035192;28;20030;-73
2021/12/08 13:09:39;;;;;;;2.97;0.80;;;;;;;;;;5035202;28;20467;-71
2021/12/08 13:12:06;;;;;;;1.25;0.50;;;;;;;;;;5034771;28;20143;-74
2021/12/08 13:14:32;;;;;;;4.35;1.95;;;;;;;;;;5034862;28;20057;-72
2021/12/08 13:17:19;;;;;;;6.75;2.80;;;;;;;;;;5035135;28;20037;-73
2021/12/08 13:19:51;;;;;;;5.20;2.60;;;;;;;;;;5034884;28;20030;-75
2021/12/08 13:22:45;;;;;;;2.20;0.80;;;;;;;;;;5034672;28;20033;-75
2021/12/08 13:25:38;;;;;;;1.70;0.73;;;;;;;;;;5016381;28;20042;-73
2021/12/08 13:28:12;;;;;;;0.70;0.30;;;;;;;;;;5034693;28;20036;-71
2021/12/08 13:31:08;;;;;;;0.93;0.40;;;;;;;;;;5032790;28;20044;-74
2021/12/08 13:33:53;;;;;;;0.40;0.22;;;;;;;;;;5029978;28;20052;-71
2021/12/08 13:36:22;;;;;;;1.00;0.63;;;;;;;;;;5034530;28;20061;-72
2021/12/08 13:38:53;;;;;;;2.28;0.50;;;;;;;;;;5034426;28;20029;-73
2021/12/08 13:41:21;;;;;;;1.95;0.60;;;;;;;;;;5033924;28;20373;-73
2021/12/08 13:43:50;;;;;;;2.13;1.10;;;;;;;;;;5034297;28;20030;-73
2021/12/08 13:46:38;;;;;;;3.23;1.60;;;;;;;;;;5034543;28;20064;-72
2021/12/08 13:49:12;;;;;;;2.10;1.00;;;;;;;;;;5034353;28;20091;-73
2021/12/08 13:51:38;;;;;;;3.20;1.63;;;;;;;;;;5033108;28;20029;-72
2021/12/08 13:54:34;;;;;;;2.28;1.10;;;;;;;;;;5034214;28;20033;-71
2021/12/08 13:57:03;;;;;;;1.23;0.70;;;;;;;;;;5033952;28;20151;-72
2021/12/08 14:00:04;;;;;;;2.25;0.80;;;;;;;;;;5034017;28;20036;-74
2021/12/08 14:02:36;;;;;;;4.55;1.60;;;;;;;;;;5018082;28;20037;-73
2021/12/08 14:05:21;;;;;;;2.70;1.10;;;;;;;;;;5033882;28;20463;-70
2021/12/08 14:07:54;;;;;;;6.40;2.33;;;;;;;;;;5034142;28;20029;-73
2021/12/08 14:10:30;;;;;;;1.08;0.57;;;;;;;;;;5033796;28;20029;-72
2021/12/08 14:13:01;;;;;;;1.02;0.60;;;;;;;;;;5033479;28;20033;-73
2021/12/08 14:15:34;;;;;;;1.90;0.80;;;;;;;;;;5033775;28;20077;-73
2021/12/08 14:18:18;;;;;;;6.22;1.55;;;;;;;;;;5033651;28;20371;-71
2021/12/08 14:21:00;;;;;;;10.13;3.42;;;;;;;;;;5033869;28;20049;-70
2021/12/08 14:23:28;;;;;;;7.22;3.00;;;;;;;;;;5033667;28;20032;-71
2021/12/08 14:26:03;;;;;;;12.13;5.43;;;;;;;;;;5033718;28;20033;-76
2021/12/08 14:28:46;;;;;;;3.75;1.60;;;;;;;;;;5033629;28;20569;-73
2021/12/08 14:31:16;;;;;;;5.75;2.30;;;;;;;;;;5031397;28;20044;-73
2021/12/08 14:34:00;;;;;;;4.50;2.33;;;;;;;;;;5033340;28;20037;-73
2021/12/08 14:36:50;;;;;;;2.55;0.93;;;;;;;;;;5033670;28;20051;-72
2021/12/08 14:39:36;;;;;;;2.00;0.98;;;;;;;;;;5032873;28;20061;-71
2021/12/08 14:42:14;;;;;;;5.13;1.50;;;;;;;;;;5033150;28;20457;-71
2021/12/08 14:44:49;;;;;;;1.92;1.10;;;;;;;;;;5033347;28;20029;-72
2021/12/08 14:47:19;;;;;;;2.42;1.13;;;;;;;;;;5032533;28;20025;-72
2021/12/08 14:49:55;;;;;;;3.25;1.27;;;;;;;;;;5033341;28;20060;-73
2021/12/08 14:52:22;;;;;;;1.95;1.20;;;;;;;;;;5031303;28;20351;-71
2021/12/08 14:54:53;;;;;;;2.35;0.85;;;;;;;;;;5033267;28;20033;-74
2021/12/08 14:57:41;;;;;;;2.05;0.88;;;;;;;;;;5032978;28;20040;-72
2021/12/08 15:00:09;;;;;;;1.50;0.70;;;;;;;;;;5033221;28;20120;-71
2021/12/08 15:02:41;;;;;;;1.17;0.70;;;;;;;;;;5033048;28;20025;-75
2021/12/08 15:05:14;;;;;;;1.30;0.73;;;;;;;;;;5033153;28;20470;-74
2021/12/08 15:07:41;;;;;;;1.80;0.80;;;;;;;;;;5032182;28;20378;-72
2021/12/08 15:10:12;;;;;;;4.05;1.02;;;;;;;;;;5033335;28;20060;-73
2021/12/08 15:12:41;;;;;;;1.42;0.65;;;;;;;;;;5032986;28;20377;-73
2021/12/08 15:15:22;;;;;;;3.03;0.90;;;;;;;;;;5032876;28;20049;-73
2021/12/08 15:17:49;;;;;;;;;;;;;;;;;;5033794;28;20076;-73
2021/12/08 15:20:16;;;;;;;9.68;2.15;;;;;;;;;;5033216;28;20350;-72
2021/12/08 15:22:44;;;;;;;3.72;1.10;;;;;;;;;;5032801;28;20064;-71
2021/12/08 15:25:18;;;;;;;2.45;0.75;;;;;;;;;;5033084;28;20116;-73
2021/12/08 15:27:52;;;;;;;0.77;0.50;;;;;;;;;;5033129;28;20513;-72
2021/12/08 15:30:36;;;;;;;3.28;0.70;;;;;;;;;;5030307;28;20063;-73
2021/12/08 15:33:08;;;;;;;1.75;0.70;;;;;;;;;;5032602;28;20366;-73
2021/12/08 15:35:34;;;;;;;2.00;0.70;;;;;;;;;;5033177;28;20029;-72
2021/12/08 15:38:00;;;;;;;2.30;1.10;;;;;;;;;;5032808;28;20057;-72
2021/12/08 15:40:39;;;;;;;2.50;0.77;;;;;;;;;;5033014;28;20486;-73
2021/12/08 15:43:11;;;;;;;1.75;0.68;;;;;;;;;;5032778;28;20482;-73
2021/12/08 15:45:40;;;;;;;2.28;0.70;;;;;;;;;;5032736;28;20053;-74
2021/12/08 15:48:13;;;;;;;2.05;1.00;;;;;;;;;;5032884;28;20025;-71
2021/12/08 15:50:44;;;;;;;1.73;0.90;;;;;;;;;;5032788;28;20114;-74
2021/12/08 15:53:19;;;;;;;2.72;1.10;;;;;;;;;;5032642;28;20052;-72
2021/12/08 15:55:52;;;;;;;1.95;1.00;;;;;;;;;;5032844;28;20103;-71
2021/12/08 15:58:18;;;;;;;5.55;2.80;;;;;;;;;;5032946;28;20028;-73
2021/12/08 16:00:58;;;;;;;3.97;2.35;;;;;;;;;;5032787;28;20025;-74